Flight Track Log - Related Links

Times and Time Zones

All times are in EDT time to prevent confusion due to time zone crossing. See the N54PT flight status page for this flight to view local times or setup timezone preferences in your user account.


Time Position Orientation Groundspeed Altitude Reporting Facility
EDT Latitude Longitude Course Direction KTS MPH feet Rate Location/Type
Tue 10:25:14 AM 47.5125 -122.2906 197° South 138 159 1,000  Level Seattle Center
Tue 10:26:33 AM 47.4786 -122.3061 197° South 152 175 2,900 1,241 Climbing Seattle Center
Tue 10:27:39 AM 47.4842 -122.3719 277° West 159 183 4,000 699 Climbing Seattle Center
Tue 10:28:16 AM 47.4753 -122.4161 253° West 193 222 4,100 55 Climbing Seattle Center
Tue 10:29:29 AM 47.4275 -122.4914 227° Southwest 217 250 4,100  Level Seattle Center
Tue 10:30:12 AM 47.3978 -122.5419 229° Southwest 215 247 4,100 -58 Level Seattle Center
Tue 10:31:13 AM 47.3581 -122.6069 228° Southwest 216 249 4,000 492 Descending Seattle Center
Tue 10:32:14 AM 47.3283 -122.6733 237° Southwest 193 222 5,100 885 Climbing Seattle Center
Tue 10:33:15 AM 47.3139 -122.7458 254° West 186 214 5,800 836 Climbing Seattle Center
Tue 10:34:16 AM 47.2964 -122.8206 251° West 178 205 6,800 934 Climbing Seattle Center
Tue 10:35:17 AM 47.2794 -122.8836 248° West 168 193 7,700 590 Climbing Seattle Center
Tue 10:36:18 AM 47.2608 -122.9478 247° West 170 196 8,000 148 Climbing Seattle Center
Tue 10:37:19 AM 47.2381 -123.0239 246° West 203 234 8,000  Level Seattle Center
Tue 10:38:20 AM 47.2147 -123.1067 247° West 219 252 8,000  Level Seattle Center
Tue 10:39:21 AM 47.1933 -123.1989 251° West 222 255 8,000  Level Seattle Center
Tue 10:40:22 AM 47.1725 -123.2844 250° West 222 255 8,000  Level Seattle Center
Tue 10:41:23 AM 47.1547 -123.3714 253° West 223 257 8,000  Level Seattle Center
Tue 10:42:24 AM 47.1386 -123.4586 255° West 222 255 8,000  Level Seattle Center
Tue 10:43:26 AM 47.1192 -123.5517 253° West 222 255 8,000  Level Seattle Center
Tue 10:44:27 AM 47.1017 -123.6272 251° West 224 258 8,000  Level Seattle Center
Tue 10:45:28 AM 47.0803 -123.7111 250° West 223 257 8,000 98 Level Seattle Center
Tue 10:46:29 AM 47.0492 -123.8081 245° Southwest 222 255 8,200 49 Climbing Seattle Center
Tue 10:47:30 AM 47.0244 -123.8869 245° Southwest 218 251 8,100 -49 Descending Seattle Center
Tue 10:48:31 AM 46.9981 -123.9675 244° Southwest 221 254 8,100  Level Seattle Center
Tue 10:49:32 AM 46.9725 -124.0503 246° West 223 257 8,100  Level Seattle Center
Tue 10:50:33 AM 46.9489 -124.1431 250° West 224 258 8,100  Level Seattle Center
Tue 10:51:34 AM 47.0100 -124.1889 333° Northwest 238 274 8,100  Level Seattle Center
Tue 10:52:35 AM 47.0525 -124.2600 311° West 233 268 8,100  Level Seattle Center
Tue 10:53:36 AM 47.0944 -124.3319 311° West 233 268 8,100  Level Seattle Center
Tue 10:54:37 AM 47.1525 -124.3714 335° Northwest 233 268 8,100  Level Seattle Center
Tue 10:55:38 AM 47.2117 -124.4117 335° Northwest 233 268 8,100  Level Seattle Center
Tue 10:56:39 AM 47.2703 -124.4547 334° Northwest 234 269 8,100  Level Seattle Center
Tue 10:57:40 AM 47.3322 -124.4842 342° North 235 270 8,100 984 Level Seattle Center
Tue 10:58:41 AM 47.3992 -124.5122 344° North 221 254 10,100 1,721 Climbing Seattle Center
Tue 10:59:42 AM 47.4469 -124.5278 348° North 195 224 11,600 1,574 Climbing Seattle Center
Tue 11:00:43 AM 47.4961 -124.5517 342° North 187 215 13,300 1,561 Climbing Seattle Center
Tue 11:01:45 AM 47.5444 -124.5725 344° North 184 212 14,800 1,426 Climbing Seattle Center
Tue 11:02:45 AM 47.5922 -124.5922 344° North 181 208 16,200 1,339 Climbing Seattle Center
Tue 11:03:46 AM 47.6417 -124.6111 346° North 182 209 17,500 1,180 Climbing Seattle Center
Tue 11:04:47 AM 47.6919 -124.6256 349° North 184 212 18,600 1,131 Climbing Seattle Center
Tue 11:05:48 AM 47.7394 -124.6467 343° North 180 207 19,800 1,082 Climbing Seattle Center
Tue 11:06:49 AM 47.7878 -124.6611 349° North 178 205 20,800 984 Climbing Seattle Center
Tue 11:07:50 AM 47.8364 -124.6797 346° North 180 207 21,800 590 Climbing Seattle Center
Tue 11:08:51 AM 47.8353 -124.7375 268° West 187 215 22,000  Climbing Seattle Center
Tue 11:09:52 AM 47.7803 -124.7192 167° South 207 238 21,800 -541 Descending Seattle Center
Tue 11:10:53 AM 47.7111 -124.6606 150° Southeast 238 274 20,900 -2,557 Descending Seattle Center
Tue 11:11:54 AM 47.6342 -124.5978 151° Southeast 306 352 16,600 -4,377 Descending Seattle Center
Tue 11:12:55 AM 47.5558 -124.5347 151° Southeast 317 365 12,000 -3,984 Descending Seattle Center
Tue 11:13:56 AM 47.4789 -124.4756 153° Southeast 318 366 8,500 -1,721 Descending Seattle Center
Tue 11:14:57 AM 47.4331 -124.4106 136° Southeast 264 304 8,500 -393 Level Seattle Center
Tue 11:15:58 AM 47.4225 -124.3111 99° East 254 292 7,700 -443 Descending Seattle Center
Tue 11:16:59 AM 47.4303 -124.2100 83° East 253 291 7,600 -49 Descending Seattle Center
Tue 11:18:00 AM 47.4369 -124.1114 84° East 248 285 7,600  Level Seattle Center
Tue 11:19:01 AM 47.4414 -124.0164 86° East 241 277 7,600  Level Seattle Center
Tue 11:20:02 AM 47.4461 -123.9214 86° East 237 273 7,600  Level Seattle Center
Tue 11:21:03 AM 47.4508 -123.8281 86° East 234 269 7,600  Level Seattle Center
Tue 11:22:04 AM 47.4575 -123.7139 85° East 232 267 7,600  Level Seattle Center
Tue 11:23:05 AM 47.4644 -123.6167 84° East 235 270 7,600  Level Seattle Center
Tue 11:24:06 AM 47.4683 -123.5306 86° East 232 267 7,600  Level Seattle Center
Tue 11:25:07 AM 47.4725 -123.4367 86° East 232 267 7,600  Level Seattle Center
Tue 11:26:08 AM 47.4778 -123.3425 85° East 233 268 7,600 -49 Level Seattle Center
Tue 11:27:09 AM 47.4836 -123.2281 86° East 235 270 7,500 -316 Descending Seattle Center
Tue 11:28:02 AM 47.4867 -123.1394 87° East 239 275 7,000 -474 Descending Seattle Center
Tue 11:29:03 AM 47.4956 -123.0400 82° East 248 285 6,600 -508 Descending Seattle Center
Tue 11:30:12 AM 47.4992 -122.9236 87° East 243 280 5,900 -639 Descending Seattle Center
Tue 11:31:05 AM 47.5056 -122.8383 84° East 245 282 5,300 -1,131 Descending Seattle Center
Tue 11:32:14 AM 47.5114 -122.7247 86° East 242 278 3,600 -1,252 Descending Seattle Center
Tue 11:33:00 AM 47.5214 -122.6531 78° East 232 267 2,900 -956 Descending Seattle Center
Tue 11:34:07 AM 47.5358 -122.5503 78° East 223 257 1,800 -609 Descending Seattle Center
Tue 11:35:08 AM 47.5344 -122.4656 91° East 198 228 1,600 -197 Descending Seattle Center
Tue 11:36:09 AM 47.5406 -122.3933 83° East 172 198 1,400 -443 Descending Seattle Center
Tue 11:37:10 AM 47.5578 -122.3378 65° Northeast 135 155 700 -595 Descending Seattle Center
Tue 11:38:20 AM 47.5308 -122.3061 142° Southeast 126 145 100 -514 Descending Seattle Center
Tue 11:40:00 AM 47.5300 -122.3020 90° East  Level Estimated

Login

Don't have an account? Register now (free) for customized features, flight alerts, and more!